createdAt,value
2019-05-20T00:01:01.252Z,14.10
2019-05-20T00:03:31.922Z,14.00
2019-05-20T00:06:02.390Z,14.00
2019-05-20T00:08:32.751Z,14.00
2019-05-20T00:11:03.056Z,13.90
2019-05-20T00:13:33.318Z,13.90
2019-05-20T00:16:03.847Z,13.80
2019-05-20T00:18:34.127Z,13.70
2019-05-20T00:21:04.421Z,13.70
2019-05-20T00:23:34.696Z,13.60
2019-05-20T00:26:04.989Z,13.60
2019-05-20T00:28:35.262Z,13.60
2019-05-20T00:31:05.550Z,13.60
2019-05-20T00:33:36.117Z,13.60
2019-05-20T00:36:06.404Z,13.60
2019-05-20T00:38:36.687Z,13.60
2019-05-20T00:41:08.222Z,13.60
2019-05-20T00:43:38.502Z,13.60
2019-05-20T00:46:08.851Z,13.60
2019-05-20T00:48:39.138Z,13.60
2019-05-20T00:51:09.416Z,13.50
2019-05-20T00:53:39.701Z,13.50
2019-05-20T00:56:09.975Z,13.40
2019-05-20T00:58:40.255Z,13.30
2019-05-20T01:01:11.295Z,13.30
2019-05-20T01:03:41.709Z,13.30
2019-05-20T01:06:11.993Z,13.30
2019-05-20T01:08:42.294Z,13.30
2019-05-20T01:11:12.566Z,13.30
2019-05-20T01:13:42.893Z,13.30
2019-05-20T01:16:13.737Z,13.30
2019-05-20T01:18:44.032Z,13.30
2019-05-20T01:21:14.306Z,13.20
2019-05-20T01:23:45.113Z,13.20
2019-05-20T01:26:15.702Z,13.20
2019-05-20T01:28:45.982Z,13.20
2019-05-20T01:31:16.270Z,13.20
2019-05-20T01:33:46.553Z,13.20
2019-05-20T01:36:16.834Z,13.20
2019-05-20T01:38:47.427Z,13.10
2019-05-20T01:41:17.705Z,13.20
2019-05-20T01:43:48.279Z,13.10
2019-05-20T01:46:18.564Z,13.10
2019-05-20T01:48:48.838Z,13.10
2019-05-20T01:51:19.468Z,13.10
2019-05-20T01:53:49.988Z,13.10
2019-05-20T01:56:20.521Z,13.10
2019-05-20T01:58:50.794Z,13.10
2019-05-20T02:01:21.077Z,13.10
2019-05-20T02:03:51.364Z,13.00
2019-05-20T02:06:22.058Z,13.00
2019-05-20T02:08:52.342Z,13.00
2019-05-20T02:11:22.620Z,12.90
2019-05-20T02:13:54.644Z,12.90
2019-05-20T02:16:29.105Z,12.90
2019-05-20T02:18:58.662Z,12.90
2019-05-20T02:21:28.860Z,12.90
2019-05-20T02:23:59.096Z,12.90
2019-05-20T02:26:29.369Z,12.80
2019-05-20T02:28:59.654Z,12.80
2019-05-20T02:31:29.937Z,12.80
2019-05-20T02:34:00.227Z,12.70
2019-05-20T02:36:30.513Z,12.70
2019-05-20T02:39:00.785Z,12.70
2019-05-20T02:41:31.074Z,12.70
2019-05-20T02:44:01.351Z,12.70
2019-05-20T02:46:31.637Z,12.70
2019-05-20T02:49:01.936Z,12.70
2019-05-20T02:51:32.211Z,12.60
2019-05-20T02:54:03.705Z,12.60
2019-05-20T02:56:33.957Z,12.60
2019-05-20T02:59:04.389Z,12.50
2019-05-20T03:01:34.656Z,12.50
2019-05-20T03:04:12.011Z,12.50
2019-05-20T03:06:37.197Z,12.50
2019-05-20T03:09:11.705Z,12.50
2019-05-20T03:11:39.887Z,12.50
2019-05-20T03:14:10.171Z,12.50
2019-05-20T03:16:40.446Z,12.50
2019-05-20T03:19:10.723Z,12.50
2019-05-20T03:21:41.008Z,12.50
2019-05-20T03:24:11.290Z,12.50
2019-05-20T03:26:41.568Z,12.50
2019-05-20T03:29:12.461Z,12.50
2019-05-20T03:31:42.744Z,12.50
2019-05-20T03:34:41.843Z,12.40
2019-05-20T03:36:45.023Z,12.40
2019-05-20T03:39:15.302Z,12.40
2019-05-20T03:41:45.587Z,12.40
2019-05-20T03:44:16.255Z,12.40
2019-05-20T03:46:46.532Z,12.30
2019-05-20T03:49:16.829Z,12.40
2019-05-20T03:51:47.425Z,12.40
2019-05-20T03:54:17.708Z,12.40
2019-05-20T03:56:47.979Z,12.30
2019-05-20T03:59:18.316Z,12.30
2019-05-20T04:01:49.122Z,12.30
2019-05-20T04:04:19.468Z,12.30
2019-05-20T04:06:50.051Z,12.30
2019-05-20T04:09:20.332Z,12.30
2019-05-20T04:11:50.610Z,12.40
2019-05-20T04:14:20.891Z,12.40
2019-05-20T04:16:52.251Z,12.40
2019-05-20T04:19:22.523Z,12.40
2019-05-20T04:21:52.803Z,12.50
2019-05-20T04:24:23.081Z,12.60
2019-05-20T04:27:01.008Z,12.60
2019-05-20T04:29:31.653Z,12.70
2019-05-20T04:32:01.890Z,12.80
2019-05-20T04:34:32.756Z,12.90
2019-05-20T04:37:04.028Z,13.00
2019-05-20T04:39:35.437Z,13.00
2019-05-20T04:42:06.848Z,13.00
2019-05-20T04:44:37.468Z,13.10
2019-05-20T04:47:07.750Z,13.10
2019-05-20T04:49:38.027Z,13.20
2019-05-20T04:52:08.311Z,13.20
2019-05-20T04:54:38.581Z,13.20
2019-05-20T04:57:08.865Z,13.30
2019-05-20T04:59:39.220Z,13.30
2019-05-20T05:02:09.495Z,13.40
2019-05-20T05:04:39.779Z,13.50
2019-05-20T05:07:10.140Z,13.50
2019-05-20T05:09:40.427Z,13.60
2019-05-20T05:12:10.798Z,13.60
2019-05-20T05:14:41.336Z,13.60
2019-05-20T05:17:11.692Z,13.70
2019-05-20T05:19:42.052Z,13.70
2019-05-20T05:22:12.569Z,13.70
2019-05-20T05:24:42.854Z,13.80
2019-05-20T05:27:13.143Z,13.80
2019-05-20T05:29:43.424Z,13.80
2019-05-20T05:32:13.729Z,13.80
2019-05-20T05:34:44.010Z,13.80
2019-05-20T05:37:14.298Z,13.80
2019-05-20T05:39:44.586Z,13.80
2019-05-20T05:42:14.874Z,13.90
2019-05-20T05:44:45.454Z,14.00
2019-05-20T05:47:15.756Z,14.10
2019-05-20T05:49:46.046Z,14.20
2019-05-20T05:52:16.328Z,14.40
2019-05-20T05:54:46.616Z,14.50
2019-05-20T05:57:16.901Z,14.60
2019-05-20T05:59:47.189Z,14.70
2019-05-20T06:02:18.129Z,14.90
2019-05-20T06:04:49.543Z,15.10
2019-05-20T06:07:19.825Z,15.20
2019-05-20T06:09:50.117Z,15.20
2019-05-20T06:12:20.412Z,15.30
2019-05-20T06:14:50.869Z,15.20
2019-05-20T06:17:21.155Z,15.20
2019-05-20T06:19:51.434Z,15.20
2019-05-20T06:22:21.734Z,15.20
2019-05-20T06:24:52.041Z,15.20
2019-05-20T06:27:22.335Z,15.20
2019-05-20T06:29:52.921Z,15.10
2019-05-20T06:32:23.248Z,15.10
2019-05-20T06:34:53.816Z,15.10
2019-05-20T06:37:26.253Z,15.10
2019-05-20T06:39:56.605Z,15.10
2019-05-20T06:42:26.893Z,15.20
2019-05-20T06:44:57.538Z,15.20
2019-05-20T06:47:28.167Z,15.20
2019-05-20T06:49:59.245Z,15.20
2019-05-20T06:52:35.855Z,15.20
2019-05-20T06:55:01.528Z,15.30
2019-05-20T06:57:32.046Z,15.30
2019-05-20T07:00:02.472Z,15.30
2019-05-20T07:02:33.083Z,15.40
2019-05-20T07:05:04.616Z,15.30
2019-05-20T07:07:34.895Z,15.40
2019-05-20T07:10:07.807Z,15.40
2019-05-20T07:12:41.529Z,15.50
2019-05-20T07:15:10.646Z,15.60
2019-05-20T07:17:40.930Z,15.70
2019-05-20T07:20:11.615Z,15.70
2019-05-20T07:22:55.311Z,15.80
2019-05-20T07:25:14.135Z,15.80
2019-05-20T07:27:44.424Z,15.80
2019-05-20T07:30:15.961Z,15.90
2019-05-20T07:32:46.241Z,16.10
2019-05-20T07:35:29.814Z,16.10
2019-05-20T07:37:48.503Z,16.20
2019-05-20T07:40:28.988Z,16.20
2019-05-20T07:42:59.280Z,16.30
2019-05-20T07:45:34.043Z,16.30
2019-05-20T07:48:05.861Z,16.40
2019-05-20T07:50:39.689Z,16.50
2019-05-20T07:53:11.315Z,16.60
2019-05-20T07:55:58.246Z,16.60
2019-05-20T07:58:33.853Z,16.70
2019-05-20T08:01:04.465Z,16.80
2019-05-20T08:03:38.447Z,16.80
2019-05-20T08:06:07.338Z,16.80
2019-05-20T08:08:37.994Z,16.80
2019-05-20T08:11:08.447Z,16.70
2019-05-20T08:13:38.734Z,16.70
2019-05-20T08:16:09.033Z,16.80
2019-05-20T08:18:39.315Z,16.80
2019-05-20T08:21:09.989Z,16.80
2019-05-20T08:23:40.266Z,16.80
2019-05-20T08:26:10.624Z,16.90
2019-05-20T08:28:40.978Z,16.90
2019-05-20T08:31:11.276Z,16.90
2019-05-20T08:33:41.554Z,16.80
2019-05-20T08:36:11.864Z,16.90
2019-05-20T08:38:42.474Z,16.90
2019-05-20T08:41:12.788Z,16.80
2019-05-20T08:43:43.314Z,16.90
2019-05-20T08:46:13.613Z,16.90
2019-05-20T08:48:43.931Z,16.90
2019-05-20T08:51:14.946Z,16.90
2019-05-20T08:53:45.235Z,16.80
2019-05-20T08:56:15.528Z,16.70
2019-05-20T08:58:45.953Z,16.60
2019-05-20T09:01:16.274Z,16.60
2019-05-20T09:03:46.629Z,16.70
2019-05-20T09:06:20.597Z,16.80
2019-05-20T09:08:48.880Z,16.90
2019-05-20T09:11:19.180Z,17.00
2019-05-20T09:13:49.457Z,17.10
2019-05-20T09:16:19.746Z,17.20
2019-05-20T09:18:51.110Z,17.30
2019-05-20T09:21:21.610Z,17.40
2019-05-20T09:23:51.844Z,17.50
2019-05-20T09:26:22.139Z,17.60
2019-05-20T09:28:52.428Z,17.80
2019-05-20T09:31:23.422Z,17.90
2019-05-20T09:33:53.858Z,18.10
2019-05-20T09:36:26.043Z,18.20
2019-05-20T09:38:56.929Z,18.30
2019-05-20T09:41:27.180Z,18.50
2019-05-20T09:43:57.977Z,18.60
2019-05-20T09:46:28.490Z,18.60
2019-05-20T09:48:58.767Z,18.70
2019-05-20T09:51:29.059Z,18.80
2019-05-20T09:53:59.419Z,19.00
2019-05-20T09:56:29.992Z,19.10
2019-05-20T09:59:00.285Z,19.20
2019-05-20T10:01:30.594Z,19.40
2019-05-20T10:04:00.863Z,19.50
2019-05-20T10:06:31.158Z,19.40
2019-05-20T10:09:01.736Z,19.40
2019-05-20T10:11:32.018Z,19.60
2019-05-20T10:14:02.301Z,19.60
2019-05-20T10:16:32.594Z,19.60
2019-05-20T10:19:03.135Z,19.60
2019-05-20T10:21:33.853Z,19.70
2019-05-20T10:24:04.854Z,19.50
2019-05-20T10:26:36.374Z,19.40
2019-05-20T10:29:06.719Z,19.30
2019-05-20T10:31:37.326Z,19.30
2019-05-20T10:34:07.608Z,19.40
2019-05-20T10:36:37.898Z,19.40
2019-05-20T10:39:08.777Z,19.30
2019-05-20T10:41:39.212Z,19.10
2019-05-20T10:44:09.740Z,19.20
2019-05-20T10:46:40.018Z,19.20
2019-05-20T10:49:10.601Z,19.30
2019-05-20T10:51:40.945Z,19.50
2019-05-20T10:54:11.175Z,19.50
2019-05-20T10:56:41.775Z,19.40
2019-05-20T10:59:12.569Z,19.10
2019-05-20T11:01:43.032Z,18.90
2019-05-20T11:04:13.686Z,18.70
2019-05-20T11:06:43.970Z,18.60
2019-05-20T11:09:15.198Z,18.70
2019-05-20T11:11:45.476Z,18.60
2019-05-20T11:14:15.757Z,18.50
2019-05-20T11:16:46.048Z,18.50
2019-05-20T11:19:16.327Z,18.30
2019-05-20T11:21:46.963Z,18.10
2019-05-20T11:24:17.496Z,18.10
2019-05-20T11:26:47.790Z,18.00
2019-05-20T11:29:18.097Z,17.90
2019-05-20T11:31:48.435Z,17.70
2019-05-20T11:34:18.722Z,17.60
2019-05-20T11:36:49.084Z,17.60
2019-05-20T11:39:32.463Z,17.60
2019-05-20T11:41:53.940Z,17.60
2019-05-20T11:44:23.904Z,17.50
2019-05-20T11:46:54.196Z,17.40
2019-05-20T11:49:28.659Z,17.40
2019-05-20T11:51:56.498Z,17.30
2019-05-20T11:54:26.808Z,17.20
2019-05-20T11:56:57.112Z,17.20
2019-05-20T11:59:27.399Z,17.10
2019-05-20T12:01:57.682Z,17.20
2019-05-20T12:04:27.973Z,17.30
2019-05-20T12:06:58.265Z,17.20
2019-05-20T12:09:28.569Z,17.10
2019-05-20T12:11:59.143Z,16.90
2019-05-20T12:14:29.727Z,16.70
2019-05-20T12:17:00.037Z,16.70
2019-05-20T12:19:30.323Z,16.70
2019-05-20T12:22:00.625Z,16.60
2019-05-20T12:24:30.906Z,16.60
2019-05-20T12:27:01.229Z,16.50
2019-05-20T12:29:31.504Z,16.50
2019-05-20T12:32:03.661Z,16.40
2019-05-20T12:34:33.827Z,16.30
2019-05-20T12:37:04.131Z,16.30
2019-05-20T12:39:34.422Z,16.30
2019-05-20T12:42:04.765Z,16.20
2019-05-20T12:44:35.060Z,16.00
2019-05-20T12:47:05.345Z,16.00
2019-05-20T12:49:35.769Z,16.00
2019-05-20T12:52:06.252Z,15.90
2019-05-20T12:54:36.502Z,15.90
2019-05-20T12:57:06.798Z,15.80
2019-05-20T12:59:37.076Z,15.90
2019-05-20T13:02:07.540Z,16.00
2019-05-20T13:04:37.824Z,16.00
2019-05-20T13:07:08.106Z,16.00
2019-05-20T13:09:38.405Z,16.00
2019-05-20T13:12:08.684Z,15.90
2019-05-20T13:14:38.995Z,16.00
2019-05-20T13:17:09.305Z,15.90
2019-05-20T13:19:39.651Z,15.80
2019-05-20T13:22:10.939Z,15.80
2019-05-20T13:24:41.403Z,15.90
2019-05-20T13:27:12.026Z,15.80
2019-05-20T13:29:42.864Z,15.70
2019-05-20T13:32:13.242Z,15.60
2019-05-20T13:34:43.579Z,15.50
2019-05-20T13:37:13.864Z,15.40
2019-05-20T13:39:44.217Z,15.30
2019-05-20T13:42:14.504Z,15.30
2019-05-20T13:44:44.791Z,15.20
2019-05-20T13:47:15.073Z,15.10
2019-05-20T13:49:45.358Z,15.00
2019-05-20T13:52:15.966Z,14.90
2019-05-20T13:54:46.296Z,15.00
2019-05-20T13:57:16.566Z,14.90
2019-05-20T13:59:46.870Z,15.00
2019-05-20T14:02:17.462Z,15.00
2019-05-20T14:04:47.750Z,15.10
2019-05-20T14:07:18.032Z,15.10
2019-05-20T14:09:48.330Z,15.10
2019-05-20T14:12:18.613Z,15.10
2019-05-20T14:14:48.899Z,15.20
2019-05-20T14:17:19.193Z,15.30
2019-05-20T14:19:49.489Z,15.30
2019-05-20T14:22:19.771Z,15.30
2019-05-20T14:24:50.073Z,15.30
2019-05-20T14:27:20.350Z,15.30
2019-05-20T14:29:50.642Z,15.30
2019-05-20T14:32:20.974Z,15.30
2019-05-20T14:34:51.466Z,15.20
2019-05-20T14:37:21.754Z,15.20
2019-05-20T14:39:52.063Z,15.20
2019-05-20T14:42:25.442Z,15.20
2019-05-20T14:44:54.336Z,15.00
2019-05-20T14:47:24.740Z,15.10
2019-05-20T14:49:55.033Z,14.90
2019-05-20T14:52:25.323Z,15.00
2019-05-20T14:54:55.750Z,15.00
2019-05-20T14:57:26.044Z,15.00
2019-05-20T14:59:56.319Z,14.90
2019-05-20T15:02:30.706Z,14.90
2019-05-20T15:04:58.621Z,14.90
2019-05-20T15:07:30.955Z,15.00
2019-05-20T15:10:00.904Z,15.00
2019-05-20T15:12:31.230Z,15.00
2019-05-20T15:15:01.488Z,14.90
2019-05-20T15:17:31.795Z,14.90
2019-05-20T15:20:02.313Z,15.00
2019-05-20T15:22:32.596Z,15.00
2019-05-20T15:25:03.137Z,15.00
2019-05-20T15:27:33.425Z,15.00
2019-05-20T15:30:05.003Z,15.00
2019-05-20T15:32:35.288Z,15.10
2019-05-20T15:35:07.089Z,15.10
2019-05-20T15:37:37.391Z,15.10
2019-05-20T15:40:08.887Z,15.10
2019-05-20T15:42:39.170Z,15.10
2019-05-20T15:45:10.611Z,15.00
2019-05-20T15:47:41.045Z,15.10
2019-05-20T15:50:12.208Z,15.10
2019-05-20T15:52:42.774Z,15.00
2019-05-20T15:55:13.293Z,15.00
2019-05-20T15:57:43.588Z,14.90
2019-05-20T16:00:16.441Z,14.90
2019-05-20T16:02:46.731Z,14.80
2019-05-20T16:05:17.016Z,14.90
2019-05-20T16:07:47.308Z,14.90
2019-05-20T16:10:18.052Z,15.10
2019-05-20T16:12:48.336Z,15.10
2019-05-20T16:15:18.696Z,15.20
2019-05-20T16:17:48.992Z,15.20
2019-05-20T16:20:20.242Z,15.10
2019-05-20T16:22:50.521Z,15.20
2019-05-20T16:25:20.817Z,15.20
2019-05-20T16:27:51.999Z,15.20
2019-05-20T16:30:22.553Z,15.20
2019-05-20T16:32:53.067Z,15.20
2019-05-20T16:35:23.441Z,15.20
2019-05-20T16:37:53.724Z,15.10
2019-05-20T16:40:24.088Z,15.10
2019-05-20T16:42:54.377Z,15.10
2019-05-20T16:45:24.663Z,15.10
2019-05-20T16:47:55.897Z,15.10
2019-05-20T16:50:26.267Z,15.20
2019-05-20T16:52:56.544Z,15.20
2019-05-20T16:55:26.871Z,15.30
2019-05-20T16:57:57.153Z,15.40
2019-05-20T17:00:31.872Z,15.50
2019-05-20T17:02:59.670Z,15.60
2019-05-20T17:05:29.954Z,15.80
2019-05-20T17:08:02.929Z,16.00
2019-05-20T17:10:33.226Z,16.10
2019-05-20T17:13:03.525Z,16.10
2019-05-20T17:15:33.832Z,16.20
2019-05-20T17:18:04.594Z,16.30
2019-05-20T17:20:34.873Z,16.30
2019-05-20T17:23:05.164Z,16.30
2019-05-20T17:25:36.319Z,16.20
2019-05-20T17:28:08.446Z,16.30
2019-05-20T17:30:45.625Z,16.30
2019-05-20T17:33:11.255Z,16.20
2019-05-20T17:35:41.535Z,16.20
2019-05-20T17:38:11.833Z,16.20
2019-05-20T17:40:42.110Z,16.20
2019-05-20T17:43:12.469Z,16.10
2019-05-20T17:45:42.901Z,15.90
2019-05-20T17:48:13.513Z,15.80
2019-05-20T17:50:43.867Z,15.70
2019-05-20T17:53:14.157Z,15.40
2019-05-20T17:55:44.519Z,15.30
2019-05-20T17:58:14.817Z,15.20
2019-05-20T18:00:47.450Z,15.20
2019-05-20T18:03:17.454Z,15.10
2019-05-20T18:05:47.879Z,15.00
2019-05-20T18:08:19.342Z,15.00
2019-05-20T18:10:49.743Z,14.90
2019-05-20T18:13:20.031Z,14.90
2019-05-20T18:15:50.347Z,14.90
2019-05-20T18:18:20.618Z,14.90
2019-05-20T18:20:50.939Z,14.90
2019-05-20T18:23:21.218Z,14.90
2019-05-20T18:25:51.521Z,14.90
2019-05-20T18:28:22.078Z,14.90
2019-05-20T18:30:52.394Z,14.90
2019-05-20T18:33:22.710Z,14.90
2019-05-20T18:35:52.983Z,14.90
2019-05-20T18:38:23.267Z,14.80
2019-05-20T18:40:53.562Z,14.80
2019-05-20T18:43:23.961Z,14.80
2019-05-20T18:45:54.561Z,14.70
2019-05-20T18:48:25.083Z,14.80
2019-05-20T18:50:56.286Z,14.70
2019-05-20T18:53:26.576Z,14.70
2019-05-20T18:55:56.930Z,14.70
2019-05-20T18:58:27.503Z,14.70
2019-05-20T19:00:58.039Z,14.60
2019-05-20T19:03:28.977Z,14.60
2019-05-20T19:05:59.433Z,14.50
2019-05-20T19:08:30.091Z,14.50
2019-05-20T19:11:00.314Z,14.50
2019-05-20T19:13:30.607Z,14.50
2019-05-20T19:16:00.899Z,14.50
2019-05-20T19:18:31.245Z,14.40
2019-05-20T19:21:01.971Z,14.40
2019-05-20T19:23:32.325Z,14.30
2019-05-20T19:26:02.620Z,14.30
2019-05-20T19:28:32.921Z,14.30
2019-05-20T19:31:03.214Z,14.30
2019-05-20T19:33:33.507Z,14.20
2019-05-20T19:36:03.805Z,14.30
2019-05-20T19:38:35.042Z,14.20
2019-05-20T19:41:05.687Z,14.20
2019-05-20T19:43:36.217Z,14.20
2019-05-20T19:46:06.511Z,14.20
2019-05-20T19:48:36.860Z,14.20
2019-05-20T19:51:07.177Z,14.20
2019-05-20T19:53:37.457Z,14.20
2019-05-20T19:56:07.750Z,14.20
2019-05-20T19:58:38.045Z,14.20
2019-05-20T20:01:08.332Z,14.20
2019-05-20T20:03:38.914Z,14.20
2019-05-20T20:06:09.196Z,14.20
2019-05-20T20:08:39.502Z,14.20
2019-05-20T20:11:09.867Z,14.20
2019-05-20T20:13:40.217Z,14.20
2019-05-20T20:16:10.534Z,14.20
2019-05-20T20:18:40.831Z,14.20
2019-05-20T20:21:11.158Z,14.20
2019-05-20T20:23:41.452Z,14.20
2019-05-20T20:26:11.737Z,14.20
2019-05-20T20:28:42.063Z,14.20
2019-05-20T20:31:12.343Z,14.30
2019-05-20T20:33:42.697Z,14.20
2019-05-20T20:36:12.989Z,14.20
2019-05-20T20:38:43.293Z,14.20
2019-05-20T20:41:13.575Z,14.10
2019-05-20T20:43:43.867Z,14.10
2019-05-20T20:46:14.167Z,14.00
2019-05-20T20:48:44.469Z,14.00
2019-05-20T20:51:14.770Z,13.90
2019-05-20T20:53:45.133Z,14.00
2019-05-20T20:56:24.923Z,14.00
2019-05-20T20:58:47.869Z,14.00
2019-05-20T21:01:18.182Z,14.00
2019-05-20T21:03:48.475Z,14.00
2019-05-20T21:06:19.008Z,13.90
2019-05-20T21:08:49.294Z,14.00
2019-05-20T21:11:19.606Z,14.00
2019-05-20T21:13:49.950Z,14.00
2019-05-20T21:16:20.246Z,14.00
2019-05-20T21:18:50.544Z,13.90
2019-05-20T21:21:20.836Z,13.90
2019-05-20T21:23:51.176Z,13.90
2019-05-20T21:26:21.878Z,13.90
2019-05-20T21:28:52.185Z,13.90
2019-05-20T21:31:22.470Z,13.90
2019-05-20T21:33:53.058Z,13.90
2019-05-20T21:36:23.590Z,13.90
2019-05-20T21:38:53.882Z,13.90
2019-05-20T21:41:25.575Z,13.90
2019-05-20T21:43:57.156Z,13.90
2019-05-20T21:46:27.452Z,13.80
2019-05-20T21:48:57.778Z,13.80
2019-05-20T21:51:28.717Z,13.80
2019-05-20T21:53:59.134Z,13.80
2019-05-20T21:56:30.192Z,13.80
2019-05-20T21:59:01.494Z,13.80
2019-05-20T22:01:33.098Z,13.80
2019-05-20T22:04:03.417Z,13.80
2019-05-20T22:06:33.707Z,13.70
2019-05-20T22:09:05.601Z,13.70
2019-05-20T22:11:35.894Z,13.80
2019-05-20T22:14:06.541Z,13.70
2019-05-20T22:16:37.401Z,13.70
2019-05-20T22:19:08.020Z,13.70
2019-05-20T22:21:48.673Z,13.70
2019-05-20T22:24:18.955Z,13.70
2019-05-20T22:26:49.319Z,13.60
2019-05-20T22:29:19.597Z,13.60
2019-05-20T22:31:49.892Z,13.60
2019-05-20T22:34:20.176Z,13.60
2019-05-20T22:36:50.475Z,13.60
2019-05-20T22:39:20.754Z,13.50
2019-05-20T22:41:51.123Z,13.50
2019-05-20T22:44:21.424Z,13.60
2019-05-20T22:46:51.866Z,13.50
2019-05-20T22:49:22.161Z,13.50
2019-05-20T22:51:52.441Z,13.50
2019-05-20T22:54:22.726Z,13.50
2019-05-20T22:56:53.037Z,13.50
2019-05-20T22:59:23.644Z,13.50
2019-05-20T23:01:53.938Z,13.40
2019-05-20T23:04:24.214Z,13.50
2019-05-20T23:06:54.980Z,13.50
2019-05-20T23:09:25.255Z,13.50
2019-05-20T23:11:55.548Z,13.50
2019-05-20T23:14:27.010Z,13.50
2019-05-20T23:16:57.291Z,13.50
2019-05-20T23:19:27.589Z,13.50
2019-05-20T23:21:57.875Z,13.50
2019-05-20T23:24:28.178Z,13.40
2019-05-20T23:26:58.461Z,13.50
2019-05-20T23:29:29.028Z,13.50
2019-05-20T23:31:59.308Z,13.40
2019-05-20T23:34:29.618Z,13.40
2019-05-20T23:36:59.903Z,13.40
2019-05-20T23:39:30.193Z,13.40
2019-05-20T23:42:00.908Z,13.40
2019-05-20T23:44:31.210Z,13.40
2019-05-20T23:47:01.800Z,13.40
2019-05-20T23:49:32.065Z,13.40
2019-05-20T23:52:02.349Z,13.40
2019-05-20T23:54:32.643Z,13.40
2019-05-20T23:57:02.934Z,13.40
2019-05-20T23:59:33.213Z,13.40
